sensor_id;sensor_type;location;lat;lon;timestamp;P1;durP1;ratioP1;P2;durP2;ratioP2
32838;SDS011;19182;41.820;12.808;2023-12-22T00:01:26;46.25;;;22.65;;
32838;SDS011;19182;41.820;12.808;2023-12-22T00:03:51;129.48;;;52.88;;
32838;SDS011;19182;41.820;12.808;2023-12-22T00:06:17;270.08;;;108.03;;
32838;SDS011;19182;41.820;12.808;2023-12-22T00:08:43;102.20;;;43.85;;
32838;SDS011;19182;41.820;12.808;2023-12-22T00:11:09;89.68;;;40.63;;
32838;SDS011;19182;41.820;12.808;2023-12-22T00:13:34;76.10;;;35.00;;
32838;SDS011;19182;41.820;12.808;2023-12-22T00:16:01;39.05;;;20.88;;
32838;SDS011;19182;41.820;12.808;2023-12-22T00:18:27;29.20;;;17.88;;
32838;SDS011;19182;41.820;12.808;2023-12-22T00:20:54;28.38;;;18.80;;
32838;SDS011;19182;41.820;12.808;2023-12-22T00:23:20;33.10;;;18.63;;
32838;SDS011;19182;41.820;12.808;2023-12-22T00:25:47;29.27;;;16.85;;
32838;SDS011;19182;41.820;12.808;2023-12-22T00:28:14;20.35;;;15.48;;
32838;SDS011;19182;41.820;12.808;2023-12-22T00:30:40;27.27;;;16.75;;
32838;SDS011;19182;41.820;12.808;2023-12-22T00:33:07;26.83;;;15.77;;
32838;SDS011;19182;41.820;12.808;2023-12-22T00:35:34;23.90;;;16.13;;
32838;SDS011;19182;41.820;12.808;2023-12-22T00:38:00;26.70;;;16.25;;
32838;SDS011;19182;41.820;12.808;2023-12-22T00:40:27;30.75;;;17.30;;
32838;SDS011;19182;41.820;12.808;2023-12-22T00:42:53;31.83;;;18.40;;
32838;SDS011;19182;41.820;12.808;2023-12-22T00:45:18;28.83;;;14.88;;
32838;SDS011;19182;41.820;12.808;2023-12-22T00:47:44;25.80;;;15.93;;
32838;SDS011;19182;41.820;12.808;2023-12-22T00:50:10;26.58;;;14.23;;
32838;SDS011;19182;41.820;12.808;2023-12-22T00:52:37;28.17;;;15.80;;
32838;SDS011;19182;41.820;12.808;2023-12-22T00:55:03;40.50;;;18.75;;
32838;SDS011;19182;41.820;12.808;2023-12-22T00:57:29;64.43;;;26.85;;
32838;SDS011;19182;41.820;12.808;2023-12-22T00:59:55;28.98;;;15.63;;
32838;SDS011;19182;41.820;12.808;2023-12-22T01:02:20;31.70;;;13.02;;
32838;SDS011;19182;41.820;12.808;2023-12-22T01:04:46;21.48;;;12.38;;
32838;SDS011;19182;41.820;12.808;2023-12-22T01:07:13;25.02;;;12.68;;
32838;SDS011;19182;41.820;12.808;2023-12-22T01:09:39;29.55;;;13.73;;
32838;SDS011;19182;41.820;12.808;2023-12-22T01:12:06;28.33;;;13.95;;
32838;SDS011;19182;41.820;12.808;2023-12-22T01:14:33;26.55;;;13.20;;
32838;SDS011;19182;41.820;12.808;2023-12-22T01:16:58;26.63;;;11.93;;
32838;SDS011;19182;41.820;12.808;2023-12-22T01:19:25;25.92;;;12.77;;
32838;SDS011;19182;41.820;12.808;2023-12-22T01:21:51;21.23;;;11.75;;
32838;SDS011;19182;41.820;12.808;2023-12-22T01:24:18;29.38;;;12.57;;
32838;SDS011;19182;41.820;12.808;2023-12-22T01:26:44;22.50;;;10.95;;
32838;SDS011;19182;41.820;12.808;2023-12-22T01:29:10;22.27;;;12.60;;
32838;SDS011;19182;41.820;12.808;2023-12-22T01:31:37;21.95;;;11.00;;
32838;SDS011;19182;41.820;12.808;2023-12-22T01:34:03;28.38;;;10.95;;
32838;SDS011;19182;41.820;12.808;2023-12-22T01:36:28;25.40;;;10.93;;
32838;SDS011;19182;41.820;12.808;2023-12-22T01:38:54;19.67;;;8.95;;
32838;SDS011;19182;41.820;12.808;2023-12-22T01:41:21;23.67;;;9.15;;
32838;SDS011;19182;41.820;12.808;2023-12-22T01:43:46;26.58;;;9.63;;
32838;SDS011;19182;41.820;12.808;2023-12-22T01:46:12;22.10;;;9.77;;
32838;SDS011;19182;41.820;12.808;2023-12-22T01:48:38;23.00;;;11.02;;
32838;SDS011;19182;41.820;12.808;2023-12-22T01:51:04;24.33;;;10.02;;
32838;SDS011;19182;41.820;12.808;2023-12-22T01:53:31;27.05;;;9.68;;
32838;SDS011;19182;41.820;12.808;2023-12-22T01:55:58;25.73;;;9.18;;
32838;SDS011;19182;41.820;12.808;2023-12-22T01:58:27;18.83;;;8.43;;
32838;SDS011;19182;41.820;12.808;2023-12-22T02:00:54;25.85;;;10.63;;
32838;SDS011;19182;41.820;12.808;2023-12-22T02:03:21;19.08;;;8.93;;
32838;SDS011;19182;41.820;12.808;2023-12-22T02:05:47;24.00;;;9.32;;
32838;SDS011;19182;41.820;12.808;2023-12-22T02:08:15;20.73;;;9.45;;
32838;SDS011;19182;41.820;12.808;2023-12-22T02:10:43;20.25;;;9.27;;
32838;SDS011;19182;41.820;12.808;2023-12-22T02:13:09;27.67;;;10.73;;
32838;SDS011;19182;41.820;12.808;2023-12-22T02:15:37;20.15;;;8.27;;
32838;SDS011;19182;41.820;12.808;2023-12-22T02:18:06;19.05;;;8.90;;
32838;SDS011;19182;41.820;12.808;2023-12-22T02:20:44;19.83;;;8.40;;
32838;SDS011;19182;41.820;12.808;2023-12-22T02:23:10;23.35;;;8.45;;
32838;SDS011;19182;41.820;12.808;2023-12-22T02:25:37;23.75;;;8.45;;
32838;SDS011;19182;41.820;12.808;2023-12-22T02:28:09;19.83;;;8.25;;
32838;SDS011;19182;41.820;12.808;2023-12-22T02:30:59;25.45;;;8.95;;
32838;SDS011;19182;41.820;12.808;2023-12-22T02:33:38;18.55;;;8.32;;
32838;SDS011;19182;41.820;12.808;2023-12-22T02:36:09;25.30;;;8.73;;
32838;SDS011;19182;41.820;12.808;2023-12-22T02:38:35;23.40;;;8.02;;
32838;SDS011;19182;41.820;12.808;2023-12-22T02:41:02;21.23;;;7.22;;
32838;SDS011;19182;41.820;12.808;2023-12-22T02:43:28;21.88;;;6.47;;
32838;SDS011;19182;41.820;12.808;2023-12-22T02:45:55;21.85;;;6.60;;
32838;SDS011;19182;41.820;12.808;2023-12-22T02:48:22;22.05;;;7.00;;
32838;SDS011;19182;41.820;12.808;2023-12-22T02:50:47;15.45;;;6.25;;
32838;SDS011;19182;41.820;12.808;2023-12-22T02:53:15;31.15;;;7.88;;
32838;SDS011;19182;41.820;12.808;2023-12-22T02:55:42;14.63;;;5.82;;
32838;SDS011;19182;41.820;12.808;2023-12-22T02:58:09;21.13;;;5.78;;
32838;SDS011;19182;41.820;12.808;2023-12-22T03:00:36;20.20;;;5.78;;
32838;SDS011;19182;41.820;12.808;2023-12-22T03:03:03;20.17;;;5.90;;
32838;SDS011;19182;41.820;12.808;2023-12-22T03:05:30;23.70;;;5.45;;
32838;SDS011;19182;41.820;12.808;2023-12-22T03:07:56;21.15;;;6.60;;
32838;SDS011;19182;41.820;12.808;2023-12-22T03:10:23;16.70;;;6.30;;
32838;SDS011;19182;41.820;12.808;2023-12-22T03:12:50;19.88;;;5.75;;
32838;SDS011;19182;41.820;12.808;2023-12-22T03:15:17;26.45;;;6.15;;
32838;SDS011;19182;41.820;12.808;2023-12-22T03:17:44;16.52;;;5.28;;
32838;SDS011;19182;41.820;12.808;2023-12-22T03:20:09;22.80;;;5.60;;
32838;SDS011;19182;41.820;12.808;2023-12-22T03:22:36;19.08;;;5.03;;
32838;SDS011;19182;41.820;12.808;2023-12-22T03:25:02;26.77;;;6.50;;
32838;SDS011;19182;41.820;12.808;2023-12-22T03:27:29;17.73;;;5.28;;
32838;SDS011;19182;41.820;12.808;2023-12-22T03:29:56;17.63;;;4.72;;
32838;SDS011;19182;41.820;12.808;2023-12-22T03:32:23;32.38;;;5.57;;
32838;SDS011;19182;41.820;12.808;2023-12-22T03:34:50;19.60;;;5.10;;
32838;SDS011;19182;41.820;12.808;2023-12-22T03:37:16;14.65;;;5.22;;
32838;SDS011;19182;41.820;12.808;2023-12-22T03:39:42;18.58;;;6.35;;
32838;SDS011;19182;41.820;12.808;2023-12-22T03:42:09;26.80;;;7.00;;
32838;SDS011;19182;41.820;12.808;2023-12-22T03:44:35;24.58;;;6.78;;
32838;SDS011;19182;41.820;12.808;2023-12-22T03:47:00;14.60;;;6.20;;
32838;SDS011;19182;41.820;12.808;2023-12-22T03:49:26;22.67;;;5.95;;
32838;SDS011;19182;41.820;12.808;2023-12-22T03:51:53;22.58;;;6.07;;
32838;SDS011;19182;41.820;12.808;2023-12-22T03:54:18;26.92;;;6.00;;
32838;SDS011;19182;41.820;12.808;2023-12-22T03:56:44;14.77;;;5.93;;
32838;SDS011;19182;41.820;12.808;2023-12-22T03:59:11;23.00;;;6.95;;
32838;SDS011;19182;41.820;12.808;2023-12-22T04:01:38;25.60;;;6.85;;
32838;SDS011;19182;41.820;12.808;2023-12-22T04:04:04;20.55;;;7.18;;
32838;SDS011;19182;41.820;12.808;2023-12-22T04:06:31;27.60;;;6.90;;
32838;SDS011;19182;41.820;12.808;2023-12-22T04:08:56;23.02;;;7.25;;
32838;SDS011;19182;41.820;12.808;2023-12-22T04:11:23;26.00;;;7.30;;
32838;SDS011;19182;41.820;12.808;2023-12-22T04:13:50;22.08;;;8.32;;
32838;SDS011;19182;41.820;12.808;2023-12-22T04:16:16;20.80;;;7.45;;
32838;SDS011;19182;41.820;12.808;2023-12-22T04:18:43;19.23;;;7.30;;
32838;SDS011;19182;41.820;12.808;2023-12-22T04:21:10;23.70;;;8.35;;
32838;SDS011;19182;41.820;12.808;2023-12-22T04:23:37;22.50;;;8.13;;
32838;SDS011;19182;41.820;12.808;2023-12-22T04:26:04;22.40;;;7.63;;
32838;SDS011;19182;41.820;12.808;2023-12-22T04:28:31;21.13;;;8.57;;
32838;SDS011;19182;41.820;12.808;2023-12-22T04:30:56;24.10;;;10.70;;
32838;SDS011;19182;41.820;12.808;2023-12-22T04:33:23;18.17;;;8.40;;
32838;SDS011;19182;41.820;12.808;2023-12-22T04:35:49;23.05;;;8.27;;
32838;SDS011;19182;41.820;12.808;2023-12-22T04:38:16;24.05;;;8.32;;
32838;SDS011;19182;41.820;12.808;2023-12-22T04:40:43;33.83;;;10.85;;
32838;SDS011;19182;41.820;12.808;2023-12-22T04:43:10;25.75;;;8.43;;
32838;SDS011;19182;41.820;12.808;2023-12-22T04:45:36;28.65;;;8.73;;
32838;SDS011;19182;41.820;12.808;2023-12-22T04:48:03;24.88;;;8.77;;
32838;SDS011;19182;41.820;12.808;2023-12-22T04:50:30;18.85;;;8.60;;
32838;SDS011;19182;41.820;12.808;2023-12-22T04:52:56;24.30;;;8.75;;
32838;SDS011;19182;41.820;12.808;2023-12-22T04:55:27;28.95;;;9.88;;
32838;SDS011;19182;41.820;12.808;2023-12-22T04:57:53;27.15;;;12.90;;
32838;SDS011;19182;41.820;12.808;2023-12-22T05:00:18;27.88;;;10.88;;
32838;SDS011;19182;41.820;12.808;2023-12-22T05:02:47;32.42;;;10.43;;
32838;SDS011;19182;41.820;12.808;2023-12-22T05:05:13;19.45;;;7.68;;
32838;SDS011;19182;41.820;12.808;2023-12-22T05:07:38;21.98;;;7.47;;
32838;SDS011;19182;41.820;12.808;2023-12-22T05:10:05;26.40;;;7.00;;
32838;SDS011;19182;41.820;12.808;2023-12-22T05:12:31;21.85;;;7.85;;
32838;SDS011;19182;41.820;12.808;2023-12-22T05:14:57;23.35;;;7.93;;
32838;SDS011;19182;41.820;12.808;2023-12-22T05:17:24;16.75;;;7.45;;
32838;SDS011;19182;41.820;12.808;2023-12-22T05:19:51;21.92;;;8.07;;
32838;SDS011;19182;41.820;12.808;2023-12-22T05:22:17;20.52;;;7.40;;
32838;SDS011;19182;41.820;12.808;2023-12-22T05:24:42;17.05;;;9.18;;
32838;SDS011;19182;41.820;12.808;2023-12-22T05:27:08;31.15;;;13.13;;
32838;SDS011;19182;41.820;12.808;2023-12-22T05:29:34;51.42;;;20.70;;
32838;SDS011;19182;41.820;12.808;2023-12-22T05:32:00;64.15;;;27.67;;
32838;SDS011;19182;41.820;12.808;2023-12-22T05:34:25;77.75;;;33.28;;
32838;SDS011;19182;41.820;12.808;2023-12-22T05:36:51;145.32;;;59.13;;
32838;SDS011;19182;41.820;12.808;2023-12-22T05:39:16;151.80;;;65.07;;
32838;SDS011;19182;41.820;12.808;2023-12-22T05:41:47;37.42;;;15.27;;
32838;SDS011;19182;41.820;12.808;2023-12-22T05:44:13;23.67;;;8.38;;
32838;SDS011;19182;41.820;12.808;2023-12-22T05:46:39;23.92;;;8.77;;
32838;SDS011;19182;41.820;12.808;2023-12-22T05:49:05;26.02;;;8.20;;
32838;SDS011;19182;41.820;12.808;2023-12-22T05:51:37;19.80;;;7.25;;
32838;SDS011;19182;41.820;12.808;2023-12-22T05:54:09;26.67;;;7.30;;
32838;SDS011;19182;41.820;12.808;2023-12-22T05:59:03;18.33;;;5.93;;
32838;SDS011;19182;41.820;12.808;2023-12-22T06:01:30;11.43;;;5.25;;
32838;SDS011;19182;41.820;12.808;2023-12-22T06:03:56;16.50;;;6.38;;
32838;SDS011;19182;41.820;12.808;2023-12-22T06:06:22;19.90;;;6.20;;
32838;SDS011;19182;41.820;12.808;2023-12-22T06:08:49;18.70;;;5.82;;
32838;SDS011;19182;41.820;12.808;2023-12-22T06:11:14;16.77;;;5.70;;
32838;SDS011;19182;41.820;12.808;2023-12-22T06:13:42;17.05;;;5.97;;
32838;SDS011;19182;41.820;12.808;2023-12-22T06:16:12;20.13;;;6.97;;
32838;SDS011;19182;41.820;12.808;2023-12-22T06:18:39;25.17;;;8.57;;
32838;SDS011;19182;41.820;12.808;2023-12-22T06:21:06;25.83;;;8.10;;
32838;SDS011;19182;41.820;12.808;2023-12-22T06:23:33;34.22;;;10.18;;
32838;SDS011;19182;41.820;12.808;2023-12-22T06:26:01;26.25;;;9.43;;
32838;SDS011;19182;41.820;12.808;2023-12-22T06:28:32;26.40;;;8.98;;
32838;SDS011;19182;41.820;12.808;2023-12-22T06:31:01;28.90;;;9.32;;
32838;SDS011;19182;41.820;12.808;2023-12-22T06:33:26;23.83;;;9.55;;
32838;SDS011;19182;41.820;12.808;2023-12-22T06:35:52;32.40;;;11.82;;
32838;SDS011;19182;41.820;12.808;2023-12-22T06:38:19;41.58;;;16.38;;
32838;SDS011;19182;41.820;12.808;2023-12-22T06:40:46;54.15;;;16.98;;
32838;SDS011;19182;41.820;12.808;2023-12-22T06:43:13;41.25;;;15.63;;
32838;SDS011;19182;41.820;12.808;2023-12-22T06:45:40;31.63;;;11.60;;
32838;SDS011;19182;41.820;12.808;2023-12-22T06:48:07;19.63;;;6.93;;
32838;SDS011;19182;41.820;12.808;2023-12-22T06:50:34;26.58;;;7.93;;
32838;SDS011;19182;41.820;12.808;2023-12-22T06:53:02;22.95;;;8.30;;
32838;SDS011;19182;41.820;12.808;2023-12-22T06:55:28;22.42;;;7.10;;
32838;SDS011;19182;41.820;12.808;2023-12-22T06:57:58;23.90;;;6.78;;
32838;SDS011;19182;41.820;12.808;2023-12-22T07:00:24;16.40;;;6.85;;
32838;SDS011;19182;41.820;12.808;2023-12-22T07:02:50;19.95;;;8.13;;
32838;SDS011;19182;41.820;12.808;2023-12-22T07:07:46;24.53;;;8.67;;
32838;SDS011;19182;41.820;12.808;2023-12-22T07:10:12;21.67;;;6.82;;
32838;SDS011;19182;41.820;12.808;2023-12-22T07:12:38;18.40;;;5.32;;
32838;SDS011;19182;41.820;12.808;2023-12-22T07:15:07;46.30;;;6.73;;
32838;SDS011;19182;41.820;12.808;2023-12-22T07:17:34;21.05;;;6.05;;
32838;SDS011;19182;41.820;12.808;2023-12-22T07:20:00;27.88;;;7.68;;
32838;SDS011;19182;41.820;12.808;2023-12-22T07:22:28;22.70;;;7.18;;
32838;SDS011;19182;41.820;12.808;2023-12-22T07:24:54;30.92;;;8.63;;
32838;SDS011;19182;41.820;12.808;2023-12-22T07:27:20;40.33;;;12.15;;
32838;SDS011;19182;41.820;12.808;2023-12-22T07:29:46;31.42;;;9.93;;
32838;SDS011;19182;41.820;12.808;2023-12-22T07:32:12;34.05;;;11.30;;
32838;SDS011;19182;41.820;12.808;2023-12-22T07:34:38;62.58;;;26.67;;
32838;SDS011;19182;41.820;12.808;2023-12-22T07:37:04;39.78;;;16.45;;
32838;SDS011;19182;41.820;12.808;2023-12-22T07:39:32;15.73;;;5.82;;
32838;SDS011;19182;41.820;12.808;2023-12-22T07:41:57;13.48;;;5.10;;
32838;SDS011;19182;41.820;12.808;2023-12-22T07:44:24;25.25;;;7.82;;
32838;SDS011;19182;41.820;12.808;2023-12-22T07:46:57;15.10;;;6.60;;
32838;SDS011;19182;41.820;12.808;2023-12-22T07:49:25;20.25;;;8.50;;
32838;SDS011;19182;41.820;12.808;2023-12-22T07:51:52;26.20;;;8.18;;
32838;SDS011;19182;41.820;12.808;2023-12-22T07:54:18;28.55;;;10.00;;
32838;SDS011;19182;41.820;12.808;2023-12-22T07:56:44;24.48;;;7.70;;
32838;SDS011;19182;41.820;12.808;2023-12-22T07:59:11;21.48;;;5.78;;
32838;SDS011;19182;41.820;12.808;2023-12-22T08:01:39;20.17;;;5.93;;
32838;SDS011;19182;41.820;12.808;2023-12-22T08:04:05;15.90;;;6.13;;
32838;SDS011;19182;41.820;12.808;2023-12-22T08:06:31;18.83;;;5.57;;
32838;SDS011;19182;41.820;12.808;2023-12-22T08:08:58;14.73;;;5.40;;
32838;SDS011;19182;41.820;12.808;2023-12-22T08:11:23;12.55;;;5.50;;
32838;SDS011;19182;41.820;12.808;2023-12-22T08:13:50;12.23;;;4.68;;
32838;SDS011;19182;41.820;12.808;2023-12-22T08:16:16;13.70;;;6.80;;
32838;SDS011;19182;41.820;12.808;2023-12-22T08:18:41;19.98;;;6.53;;
32838;SDS011;19182;41.820;12.808;2023-12-22T08:21:07;20.00;;;6.43;;
32838;SDS011;19182;41.820;12.808;2023-12-22T08:23:32;17.95;;;5.75;;
32838;SDS011;19182;41.820;12.808;2023-12-22T08:25:58;11.65;;;5.00;;
32838;SDS011;19182;41.820;12.808;2023-12-22T08:28:24;10.43;;;5.45;;
32838;SDS011;19182;41.820;12.808;2023-12-22T08:30:51;10.00;;;4.88;;
32838;SDS011;19182;41.820;12.808;2023-12-22T08:33:17;9.73;;;4.20;;
32838;SDS011;19182;41.820;12.808;2023-12-22T08:35:46;11.63;;;4.82;;
32838;SDS011;19182;41.820;12.808;2023-12-22T08:38:11;11.43;;;4.07;;
32838;SDS011;19182;41.820;12.808;2023-12-22T08:40:38;6.00;;;3.60;;
32838;SDS011;19182;41.820;12.808;2023-12-22T08:43:04;9.88;;;3.92;;
32838;SDS011;19182;41.820;12.808;2023-12-22T08:45:31;7.53;;;3.33;;
32838;SDS011;19182;41.820;12.808;2023-12-22T08:47:58;9.30;;;3.42;;
32838;SDS011;19182;41.820;12.808;2023-12-22T08:50:23;9.02;;;3.25;;
32838;SDS011;19182;41.820;12.808;2023-12-22T08:52:49;9.18;;;3.72;;
32838;SDS011;19182;41.820;12.808;2023-12-22T08:55:15;11.65;;;4.28;;
32838;SDS011;19182;41.820;12.808;2023-12-22T08:57:41;10.88;;;3.28;;
32838;SDS011;19182;41.820;12.808;2023-12-22T09:00:06;11.10;;;3.63;;
32838;SDS011;19182;41.820;12.808;2023-12-22T09:02:32;9.93;;;3.53;;
32838;SDS011;19182;41.820;12.808;2023-12-22T09:04:58;9.27;;;3.05;;
32838;SDS011;19182;41.820;12.808;2023-12-22T09:07:24;10.27;;;3.35;;
32838;SDS011;19182;41.820;12.808;2023-12-22T09:09:49;9.75;;;3.40;;
32838;SDS011;19182;41.820;12.808;2023-12-22T09:12:15;9.88;;;2.95;;
32838;SDS011;19182;41.820;12.808;2023-12-22T09:14:41;9.93;;;3.80;;
32838;SDS011;19182;41.820;12.808;2023-12-22T09:17:07;8.63;;;2.42;;
32838;SDS011;19182;41.820;12.808;2023-12-22T09:19:33;8.85;;;2.97;;
32838;SDS011;19182;41.820;12.808;2023-12-22T09:22:00;10.35;;;3.00;;
32838;SDS011;19182;41.820;12.808;2023-12-22T09:24:28;15.05;;;3.45;;
32838;SDS011;19182;41.820;12.808;2023-12-22T09:26:54;12.48;;;2.90;;
32838;SDS011;19182;41.820;12.808;2023-12-22T09:29:27;9.10;;;3.88;;
32838;SDS011;19182;41.820;12.808;2023-12-22T09:32:16;11.90;;;3.05;;
32838;SDS011;19182;41.820;12.808;2023-12-22T09:34:42;6.15;;;2.05;;
32838;SDS011;19182;41.820;12.808;2023-12-22T09:37:08;9.40;;;2.17;;
32838;SDS011;19182;41.820;12.808;2023-12-22T09:39:34;10.13;;;3.67;;
32838;SDS011;19182;41.820;12.808;2023-12-22T09:41:59;9.55;;;3.92;;
32838;SDS011;19182;41.820;12.808;2023-12-22T09:44:25;11.20;;;3.90;;
32838;SDS011;19182;41.820;12.808;2023-12-22T09:46:57;11.98;;;4.00;;
32838;SDS011;19182;41.820;12.808;2023-12-22T09:49:25;6.65;;;3.30;;
32838;SDS011;19182;41.820;12.808;2023-12-22T09:51:51;10.10;;;4.57;;
32838;SDS011;19182;41.820;12.808;2023-12-22T09:54:19;10.32;;;4.63;;
32838;SDS011;19182;41.820;12.808;2023-12-22T09:56:45;17.08;;;3.78;;
32838;SDS011;19182;41.820;12.808;2023-12-22T09:59:12;14.60;;;4.20;;
32838;SDS011;19182;41.820;12.808;2023-12-22T10:01:41;12.73;;;3.70;;
32838;SDS011;19182;41.820;12.808;2023-12-22T10:04:13;9.60;;;3.22;;
32838;SDS011;19182;41.820;12.808;2023-12-22T10:06:39;13.60;;;3.53;;
32838;SDS011;19182;41.820;12.808;2023-12-22T10:09:05;12.27;;;3.33;;
32838;SDS011;19182;41.820;12.808;2023-12-22T10:11:33;11.67;;;3.00;;
32838;SDS011;19182;41.820;12.808;2023-12-22T10:14:01;10.95;;;2.85;;
32838;SDS011;19182;41.820;12.808;2023-12-22T10:16:28;9.65;;;2.70;;
32838;SDS011;19182;41.820;12.808;2023-12-22T10:18:55;11.13;;;2.80;;
32838;SDS011;19182;41.820;12.808;2023-12-22T10:21:20;14.90;;;3.78;;
32838;SDS011;19182;41.820;12.808;2023-12-22T10:23:46;11.70;;;4.22;;
32838;SDS011;19182;41.820;12.808;2023-12-22T10:26:12;12.65;;;4.85;;
32838;SDS011;19182;41.820;12.808;2023-12-22T10:28:38;15.85;;;6.65;;
32838;SDS011;19182;41.820;12.808;2023-12-22T10:31:05;129.88;;;13.68;;
32838;SDS011;19182;41.820;12.808;2023-12-22T10:33:32;45.55;;;9.10;;
32838;SDS011;19182;41.820;12.808;2023-12-22T10:35:58;21.30;;;8.38;;
32838;SDS011;19182;41.820;12.808;2023-12-22T10:38:34;20.10;;;6.95;;
32838;SDS011;19182;41.820;12.808;2023-12-22T10:41:05;16.80;;;5.57;;
32838;SDS011;19182;41.820;12.808;2023-12-22T10:43:38;9.57;;;3.97;;
32838;SDS011;19182;41.820;12.808;2023-12-22T10:46:05;11.90;;;4.85;;
32838;SDS011;19182;41.820;12.808;2023-12-22T10:48:33;23.08;;;5.63;;
32838;SDS011;19182;41.820;12.808;2023-12-22T10:50:59;16.88;;;5.00;;
32838;SDS011;19182;41.820;12.808;2023-12-22T10:53:25;15.32;;;5.10;;
32838;SDS011;19182;41.820;12.808;2023-12-22T10:55:51;13.27;;;5.00;;
32838;SDS011;19182;41.820;12.808;2023-12-22T10:58:18;10.70;;;4.45;;
32838;SDS011;19182;41.820;12.808;2023-12-22T11:00:47;10.13;;;4.10;;
32838;SDS011;19182;41.820;12.808;2023-12-22T11:03:17;12.32;;;3.80;;
32838;SDS011;19182;41.820;12.808;2023-12-22T11:05:46;7.88;;;3.47;;
32838;SDS011;19182;41.820;12.808;2023-12-22T11:08:13;9.90;;;3.88;;
32838;SDS011;19182;41.820;12.808;2023-12-22T11:10:42;10.15;;;4.80;;
32838;SDS011;19182;41.820;12.808;2023-12-22T11:13:09;10.43;;;4.10;;
32838;SDS011;19182;41.820;12.808;2023-12-22T11:15:37;12.68;;;4.03;;
32838;SDS011;19182;41.820;12.808;2023-12-22T11:18:05;12.90;;;4.70;;
32838;SDS011;19182;41.820;12.808;2023-12-22T11:20:32;17.92;;;6.90;;
32838;SDS011;19182;41.820;12.808;2023-12-22T11:23:00;15.20;;;6.72;;
32838;SDS011;19182;41.820;12.808;2023-12-22T11:25:27;12.50;;;5.45;;
32838;SDS011;19182;41.820;12.808;2023-12-22T11:27:55;16.08;;;5.57;;
32838;SDS011;19182;41.820;12.808;2023-12-22T11:30:23;13.00;;;5.10;;
32838;SDS011;19182;41.820;12.808;2023-12-22T11:32:50;11.60;;;4.85;;
32838;SDS011;19182;41.820;12.808;2023-12-22T11:35:19;12.82;;;4.68;;
32838;SDS011;19182;41.820;12.808;2023-12-22T11:37:48;15.57;;;4.72;;
32838;SDS011;19182;41.820;12.808;2023-12-22T11:40:14;13.27;;;4.70;;
32838;SDS011;19182;41.820;12.808;2023-12-22T11:42:42;13.52;;;4.72;;
32838;SDS011;19182;41.820;12.808;2023-12-22T11:45:12;11.27;;;4.75;;
32838;SDS011;19182;41.820;12.808;2023-12-22T11:47:41;14.20;;;5.38;;
32838;SDS011;19182;41.820;12.808;2023-12-22T11:50:08;9.02;;;4.47;;
32838;SDS011;19182;41.820;12.808;2023-12-22T11:52:36;12.48;;;5.20;;
32838;SDS011;19182;41.820;12.808;2023-12-22T11:55:02;15.23;;;5.85;;
32838;SDS011;19182;41.820;12.808;2023-12-22T11:59:55;17.45;;;7.53;;
32838;SDS011;19182;41.820;12.808;2023-12-22T12:02:21;15.30;;;7.53;;
32838;SDS011;19182;41.820;12.808;2023-12-22T12:04:47;13.85;;;5.97;;
32838;SDS011;19182;41.820;12.808;2023-12-22T12:10:02;11.95;;;4.85;;
32838;SDS011;19182;41.820;12.808;2023-12-22T12:12:28;13.10;;;4.43;;
32838;SDS011;19182;41.820;12.808;2023-12-22T12:14:59;14.43;;;5.03;;
32838;SDS011;19182;41.820;12.808;2023-12-22T12:17:37;17.60;;;4.45;;
32838;SDS011;19182;41.820;12.808;2023-12-22T12:20:07;13.48;;;4.82;;
32838;SDS011;19182;41.820;12.808;2023-12-22T12:22:35;17.27;;;6.75;;
32838;SDS011;19182;41.820;12.808;2023-12-22T12:25:06;13.98;;;7.40;;
32838;SDS011;19182;41.820;12.808;2023-12-22T12:27:34;11.68;;;4.88;;
32838;SDS011;19182;41.820;12.808;2023-12-22T12:30:11;12.30;;;4.25;;
32838;SDS011;19182;41.820;12.808;2023-12-22T12:32:42;10.52;;;4.10;;
32838;SDS011;19182;41.820;12.808;2023-12-22T12:35:11;11.98;;;3.80;;
32838;SDS011;19182;41.820;12.808;2023-12-22T12:37:37;14.30;;;3.88;;
32838;SDS011;19182;41.820;12.808;2023-12-22T12:40:06;13.32;;;3.70;;
32838;SDS011;19182;41.820;12.808;2023-12-22T12:42:33;13.25;;;4.45;;
32838;SDS011;19182;41.820;12.808;2023-12-22T12:45:02;9.82;;;3.53;;
32838;SDS011;19182;41.820;12.808;2023-12-22T12:47:29;15.73;;;5.13;;
32838;SDS011;19182;41.820;12.808;2023-12-22T12:50:01;11.18;;;4.22;;
32838;SDS011;19182;41.820;12.808;2023-12-22T12:52:30;11.68;;;4.40;;
32838;SDS011;19182;41.820;12.808;2023-12-22T12:55:18;15.40;;;4.68;;
32838;SDS011;19182;41.820;12.808;2023-12-22T12:57:46;12.85;;;4.43;;
32838;SDS011;19182;41.820;12.808;2023-12-22T13:00:15;12.82;;;4.35;;
32838;SDS011;19182;41.820;12.808;2023-12-22T13:03:19;14.55;;;5.13;;
32838;SDS011;19182;41.820;12.808;2023-12-22T13:05:44;16.35;;;4.50;;
32838;SDS011;19182;41.820;12.808;2023-12-22T13:08:12;9.75;;;3.13;;
32838;SDS011;19182;41.820;12.808;2023-12-22T13:10:40;14.88;;;5.07;;
32838;SDS011;19182;41.820;12.808;2023-12-22T13:13:06;12.02;;;3.83;;
32838;SDS011;19182;41.820;12.808;2023-12-22T13:15:34;17.52;;;4.40;;
32838;SDS011;19182;41.820;12.808;2023-12-22T13:18:00;14.18;;;5.28;;
32838;SDS011;19182;41.820;12.808;2023-12-22T13:20:28;11.88;;;4.40;;
32838;SDS011;19182;41.820;12.808;2023-12-22T13:22:54;17.42;;;4.47;;
32838;SDS011;19182;41.820;12.808;2023-12-22T13:25:20;14.27;;;4.95;;
32838;SDS011;19182;41.820;12.808;2023-12-22T13:27:50;13.10;;;3.92;;
32838;SDS011;19182;41.820;12.808;2023-12-22T13:30:35;16.33;;;5.07;;
32838;SDS011;19182;41.820;12.808;2023-12-22T13:33:03;15.55;;;4.13;;
32838;SDS011;19182;41.820;12.808;2023-12-22T13:35:29;19.55;;;3.97;;
32838;SDS011;19182;41.820;12.808;2023-12-22T13:37:56;17.55;;;4.40;;
32838;SDS011;19182;41.820;12.808;2023-12-22T13:40:22;13.00;;;3.65;;
32838;SDS011;19182;41.820;12.808;2023-12-22T13:42:57;14.07;;;4.80;;
32838;SDS011;19182;41.820;12.808;2023-12-22T13:45:27;12.80;;;4.40;;
32838;SDS011;19182;41.820;12.808;2023-12-22T13:48:03;13.60;;;3.97;;
32838;SDS011;19182;41.820;12.808;2023-12-22T13:50:31;10.90;;;3.50;;
32838;SDS011;19182;41.820;12.808;2023-12-22T13:53:06;11.73;;;3.97;;
32838;SDS011;19182;41.820;12.808;2023-12-22T13:55:33;19.48;;;4.32;;
32838;SDS011;19182;41.820;12.808;2023-12-22T13:58:02;17.52;;;4.22;;
32838;SDS011;19182;41.820;12.808;2023-12-22T14:00:28;13.27;;;4.25;;
32838;SDS011;19182;41.820;12.808;2023-12-22T14:02:55;17.42;;;5.07;;
32838;SDS011;19182;41.820;12.808;2023-12-22T14:05:21;14.48;;;4.38;;
32838;SDS011;19182;41.820;12.808;2023-12-22T14:07:47;16.13;;;3.80;;
32838;SDS011;19182;41.820;12.808;2023-12-22T14:10:13;17.38;;;4.05;;
32838;SDS011;19182;41.820;12.808;2023-12-22T14:12:39;17.60;;;3.97;;
32838;SDS011;19182;41.820;12.808;2023-12-22T14:15:06;21.27;;;4.70;;
32838;SDS011;19182;41.820;12.808;2023-12-22T14:17:33;23.42;;;8.93;;
32838;SDS011;19182;41.820;12.808;2023-12-22T14:19:59;25.25;;;12.45;;
32838;SDS011;19182;41.820;12.808;2023-12-22T14:22:25;34.10;;;14.80;;
32838;SDS011;19182;41.820;12.808;2023-12-22T14:24:51;17.65;;;7.78;;
32838;SDS011;19182;41.820;12.808;2023-12-22T14:27:19;21.08;;;7.03;;
32838;SDS011;19182;41.820;12.808;2023-12-22T14:29:47;20.27;;;6.22;;